This is the latest recevied weather packets stored in our database for station/object N6RDS-8. If no packets are shown the sender has not sent any weather packets the latest 10 day(s).
| Time | Temp. | Humidity | Pressure | Rain* | Wind** | Luminosity | Snow |
|---|---|---|---|---|---|---|---|
| 1778011984 | 23.89° C | 35% | 1015 hPa | 0 mm | - | 201 W/m² | - |
| 1778011681 | 23.89° C | 36% | 1015 hPa | 0 mm | - | 936 W/m² | - |
| 1778011378 | 23.33° C | 35% | 1014.8 hPa | 0 mm | - | 852 W/m² | - |
| 1778011073 | 22.22° C | 37% | 1015 hPa | 0 mm | - | 914 W/m² | - |
| 1778010772 | 22.22° C | 38% | 1015 hPa | 0 mm | - | 966 W/m² | - |
| 1778010468 | 22.78° C | 37% | 1015.5 hPa | 0 mm | - | 231 W/m² | - |
| 1778010165 | 21.67° C | 38% | 1015.5 hPa | 0 mm | - | 225 W/m² | - |
| 1778009860 | 21.67° C | 41% | 1015.5 hPa | 0 mm | - | 225 W/m² | - |
| 1778009558 | 23.33° C | 39% | 1015.7 hPa | 0 mm | - | 184 W/m² | - |
| 1778009257 | 22.78° C | 38% | 1015.7 hPa | 0 mm | - | 905 W/m² | - |
| 1778008953 | 22.22° C | 40% | 1015.8 hPa | 0 mm | - | 1047 W/m² | - |
| 1778008646 | 22.78° C | 40% | 1015.6 hPa | 0 mm | - | 226 W/m² | - |
| 1778008344 | 21.67° C | 41% | 1015.6 hPa | 0 mm | - | 961 W/m² | - |
| 1778008039 | 23.33° C | 39% | 1015.8 hPa | 0 mm | - | 222 W/m² | - |
| 1778007733 | 23.33° C | 39% | 1016 hPa | 0 mm | - | 951 W/m² | - |
| 1778007431 | 21.67° C | 41% | 1016.1 hPa | 0 mm | - | 889 W/m² | - |
| 1778007128 | 22.22° C | 41% | 1016.2 hPa | 0 mm | - | 150 W/m² | - |
| 1778006823 | 23.89° C | 40% | 1016.1 hPa | 0 mm | - | 910 W/m² | - |
| 1778006521 | 22.78° C | 42% | 1015.9 hPa | 0 mm | - | 943 W/m² | - |
| 1778006217 | 22.78° C | 43% | 1016.1 hPa | 0 mm | - | 284 W/m² | - |
| 1778005916 | 21.11° C | 44% | 1016.5 hPa | 0 mm | - | 913 W/m² | - |
| 1778005610 | 21.67° C | 43% | 1016.1 hPa | 0 mm | - | 234 W/m² | - |
| 1778005308 | 21.11° C | 46% | 1016.2 hPa | 0 mm | - | 291 W/m² | - |
| 1778005004 | 22.78° C | 46% | 1016.1 hPa | 0 mm | - | 209 W/m² | - |
| 1778004702 | 21.67° C | 47% | 1016.4 hPa | 0 mm | - | 902 W/m² | - |
* Rain latest hour (hover to see other rain measurements)
** Current wind speed in m/s (hover to see current wind gust speed)